Queen Of Burnaby — VCVV — position and weather

sailwx.info

Track history (hours):
 
Tides and Currents Weather Stations Pressure Air Temp Water Temp Dewpoint Dewpoint Depression Visibility Wind Speed Wind Dir Waves Ship Positions

Queen Of Burnaby

Last reported at 2015-Mar-31 03:10 UTC. Time now 2015-Mar-31 08:32 UTC.
Position N 49°49' W 124°38'.

Length 130 m; draft 4 m.

MMSI: 316001246.

Date/timePositionNaut miles runAvg speedWind from/ knotsBaromVisibWave heightAir tempDewpointWater temp
2015-Mar-31 03:10N 49°49' W 124°38'914.5
2015-Mar-31 02:33N 49°46' W 124°51'12 4.1
2015-Mar-30 23:32N 49°50' W 124°33'1312.7
2015-Mar-30 22:33N 49°46' W 124°51'1 0.6
2015-Mar-30 20:07N 49°44' W 124°50'610.8
2015-Mar-30 19:32N 49°46' W 124°41'7 6.5
2015-Mar-30 18:28N 49°50' W 124°32'1111.5
2015-Mar-30 17:32N 49°45' W 124°47'3 2.9
2015-Mar-30 16:21N 49°45' W 124°52'11 6.1
2015-Mar-30 14:32N 49°49' W 124°36'1 0.1
2015-Mar-30 03:13N 49°49' W 124°38'1 0.1
2015-Mar-29 18:06N 49°49' W 124°37'713.6
2015-Mar-29 17:33N 49°45' W 124°46'11 0.7
2015-Mar-29 03:20N 49°50' W 124°32'1012.0
2015-Mar-29 02:30N 49°47' W 124°47'1 0.1
2015-Mar-28 17:30N 49°46' W 124°48'6 1.8
2015-Mar-28 14:21N 49°48' W 124°39'1 0.1
2015-Mar-28 03:09N 49°49' W 124°38'914.7
2015-Mar-28 02:32N 49°46' W 124°51'13 4.2
2015-Mar-27 23:31N 49°50' W 124°33'1414.1
2015-Mar-27 22:32N 49°45' W 124°53'14 3.4
2015-Mar-27 18:22N 49°50' W 124°32'1011.9
2015-Mar-27 17:33N 49°47' W 124°46'7 2.2
2015-Mar-27 14:28N 49°49' W 124°37'2 0.2
2015-Mar-27 03:21N 49°50' W 124°33'1215.0
2015-Mar-27 02:33N 49°46' W 124°51'8 2.5
2015-Mar-26 23:12N 49°49' W 124°39'2 0.4
2015-Mar-26 18:04N 49°50' W 124°36'815.0
2015-Mar-26 17:33N 49°47' W 124°47'1 0.8
2015-Mar-26 16:08N 49°46' W 124°49'9 5.4
2015-Mar-26 14:31N 49°49' W 124°36'2 0.2
2015-Mar-26 03:10N 49°50' W 124°33'813.0
2015-Mar-26 02:33N 49°47' W 124°45'3 0.4
2015-Mar-25 20:17N 49°46' W 124°49'1210.3
2015-Mar-25 19:09N 49°50' W 124°32'4 7.6
2015-Mar-25 18:33N 49°49' W 124°39'2 0.5
2015-Mar-25 15:13N 49°50' W 124°36'811.8
2015-Mar-25 14:31N 49°46' W 124°48'10 0.9
2015-Mar-25 03:25N 49°50' W 124°33'1314.6
2015-Mar-25 02:30N 49°45' W 124°53'9 2.7
2015-Mar-24 23:13N 49°48' W 124°40'5 0.8
2015-Mar-24 17:33N 49°47' W 124°47'7 2.2
2015-Mar-24 14:28N 49°49' W 124°37'4 0.4
2015-Mar-24 04:20N 49°48' W 124°43'6 6.6
2015-Mar-24 03:22N 49°50' W 124°34'1214.7
2015-Mar-24 02:33N 49°46' W 124°51'10 3.1
2015-Mar-23 23:21N 49°49' W 124°37'1113.6
2015-Mar-23 22:33N 49°45' W 124°52'13 3.0
2015-Mar-23 18:14N 49°50' W 124°34'914.0
2015-Mar-23 17:33N 49°47' W 124°47'7 2.4
2015-Mar-23 14:27N 49°49' W 124°37'8 0.8
2015-Mar-23 04:29N 49°46' W 124°48'8 6.0
2015-Mar-23 03:10N 49°49' W 124°37'914.9
2015-Mar-23 02:33N 49°46' W 124°50'8 2.5
2015-Mar-22 23:21N 49°49' W 124°38'4 0.7
2015-Mar-22 18:11N 49°50' W 124°33'914.6
2015-Mar-22 17:33N 49°47' W 124°46'7 2.2
2015-Mar-22 14:30N 49°49' W 124°37'5 0.4
2015-Mar-22 02:33N 49°48' W 124°45'2 0.2
2015-Mar-21 17:31N 49°47' W 124°47'6 2.1
2015-Mar-21 14:29N 49°49' W 124°37'3 0.3
2015-Mar-21 03:32N 49°50' W 124°33'  
Track history (hours):
 
Tides and Currents Weather Stations Pressure Air Temp Water Temp Dewpoint Dewpoint Depression Visibility Wind Speed Wind Dir Waves Ship Positions

Queen Of Burnaby

Last reported at 2015-Mar-31 03:10 UTC. Time now 2015-Mar-31 08:32 UTC.
Position N 49°49' W 124°38'.

Length 130 m; draft 4 m.

MMSI: 316001246.

Date/timePositionNaut miles runAvg speedWind from/ knotsBaromVisibWave heightAir tempDewpointWater temp
2015-Mar-31 03:10N 49°49' W 124°38'914.5
2015-Mar-31 02:33N 49°46' W 124°51'12 4.1
2015-Mar-30 23:32N 49°50' W 124°33'1312.7
2015-Mar-30 22:33N 49°46' W 124°51'1 0.6
2015-Mar-30 20:07N 49°44' W 124°50'610.8
2015-Mar-30 19:32N 49°46' W 124°41'7 6.5
2015-Mar-30 18:28N 49°50' W 124°32'1111.5
2015-Mar-30 17:32N 49°45' W 124°47'3 2.9
2015-Mar-30 16:21N 49°45' W 124°52'11 6.1
2015-Mar-30 14:32N 49°49' W 124°36'1 0.1
2015-Mar-30 03:13N 49°49' W 124°38'1 0.1
2015-Mar-29 18:06N 49°49' W 124°37'713.6
2015-Mar-29 17:33N 49°45' W 124°46'11 0.7
2015-Mar-29 03:20N 49°50' W 124°32'1012.0
2015-Mar-29 02:30N 49°47' W 124°47'1 0.1
2015-Mar-28 17:30N 49°46' W 124°48'6 1.8
2015-Mar-28 14:21N 49°48' W 124°39'1 0.1
2015-Mar-28 03:09N 49°49' W 124°38'914.7
2015-Mar-28 02:32N 49°46' W 124°51'13 4.2
2015-Mar-27 23:31N 49°50' W 124°33'1414.1
2015-Mar-27 22:32N 49°45' W 124°53'14 3.4
2015-Mar-27 18:22N 49°50' W 124°32'1011.9
2015-Mar-27 17:33N 49°47' W 124°46'7 2.2
2015-Mar-27 14:28N 49°49' W 124°37'2 0.2
2015-Mar-27 03:21N 49°50' W 124°33'1215.0
2015-Mar-27 02:33N 49°46' W 124°51'8 2.5
2015-Mar-26 23:12N 49°49' W 124°39'2 0.4
2015-Mar-26 18:04N 49°50' W 124°36'815.0
2015-Mar-26 17:33N 49°47' W 124°47'1 0.8
2015-Mar-26 16:08N 49°46' W 124°49'9 5.4
2015-Mar-26 14:31N 49°49' W 124°36'2 0.2
2015-Mar-26 03:10N 49°50' W 124°33'813.0
2015-Mar-26 02:33N 49°47' W 124°45'3 0.4
2015-Mar-25 20:17N 49°46' W 124°49'1210.3
2015-Mar-25 19:09N 49°50' W 124°32'4 7.6
2015-Mar-25 18:33N 49°49' W 124°39'2 0.5
2015-Mar-25 15:13N 49°50' W 124°36'811.8
2015-Mar-25 14:31N 49°46' W 124°48'10 0.9
2015-Mar-25 03:25N 49°50' W 124°33'1314.6
2015-Mar-25 02:30N 49°45' W 124°53'9 2.7
2015-Mar-24 23:13N 49°48' W 124°40'5 0.8
2015-Mar-24 17:33N 49°47' W 124°47'7 2.2
2015-Mar-24 14:28N 49°49' W 124°37'4 0.4
2015-Mar-24 04:20N 49°48' W 124°43'6 6.6
2015-Mar-24 03:22N 49°50' W 124°34'1214.7
2015-Mar-24 02:33N 49°46' W 124°51'10 3.1
2015-Mar-23 23:21N 49°49' W 124°37'1113.6
2015-Mar-23 22:33N 49°45' W 124°52'13 3.0
2015-Mar-23 18:14N 49°50' W 124°34'914.0
2015-Mar-23 17:33N 49°47' W 124°47'7 2.4
2015-Mar-23 14:27N 49°49' W 124°37'8 0.8
2015-Mar-23 04:29N 49°46' W 124°48'8 6.0
2015-Mar-23 03:10N 49°49' W 124°37'914.9
2015-Mar-23 02:33N 49°46' W 124°50'8 2.5
2015-Mar-22 23:21N 49°49' W 124°38'4 0.7
2015-Mar-22 18:11N 49°50' W 124°33'914.6
2015-Mar-22 17:33N 49°47' W 124°46'7 2.2
2015-Mar-22 14:30N 49°49' W 124°37'5 0.4
2015-Mar-22 02:33N 49°48' W 124°45'2 0.2
2015-Mar-21 17:31N 49°47' W 124°47'6 2.1
2015-Mar-21 14:29N 49°49' W 124°37'3 0.3
2015-Mar-21 03:32N 49°50' W 124°33'  

Dump ship's entire track history